createdAt,value
2022-10-25T00:01:18.227Z,48.52
2022-10-25T00:06:25.205Z,48.67
2022-10-25T00:11:32.421Z,48.81
2022-10-25T00:16:39.628Z,48.95
2022-10-25T00:21:46.816Z,49.06
2022-10-25T00:26:54.008Z,49.21
2022-10-25T00:32:01.287Z,49.29
2022-10-25T00:37:08.416Z,49.41
2022-10-25T00:42:15.643Z,49.32
2022-10-25T00:47:22.869Z,49.45
2022-10-25T00:52:30.105Z,49.46
2022-10-25T00:57:37.360Z,49.52
2022-10-25T01:02:44.775Z,49.36
2022-10-25T01:07:51.803Z,49.52
2022-10-25T01:12:58.983Z,49.51
2022-10-25T01:18:06.218Z,49.68
2022-10-25T01:23:13.380Z,49.45
2022-10-25T01:28:20.526Z,49.55
2022-10-25T01:33:27.743Z,49.48
2022-10-25T01:38:34.875Z,49.55
2022-10-25T01:43:42.091Z,49.50
2022-10-25T01:48:49.303Z,49.36
2022-10-25T01:53:56.469Z,49.28
2022-10-25T01:59:03.593Z,49.06
2022-10-25T02:04:10.781Z,49.69
2022-10-25T02:09:18.008Z,49.87
2022-10-25T02:14:25.191Z,49.90
2022-10-25T02:19:32.355Z,49.81
2022-10-25T02:24:39.527Z,49.73
2022-10-25T02:29:46.659Z,49.82
2022-10-25T02:34:53.843Z,49.87
2022-10-25T02:40:00.998Z,49.86
2022-10-25T02:45:08.231Z,49.87
2022-10-25T02:50:15.474Z,49.84
2022-10-25T02:55:22.672Z,49.80
2022-10-25T03:00:30.037Z,49.77
2022-10-25T03:05:37.158Z,49.71
2022-10-25T03:10:44.344Z,49.84
2022-10-25T03:15:51.519Z,49.93
2022-10-25T03:20:58.832Z,50.02
2022-10-25T03:26:05.995Z,50.03
2022-10-25T03:31:13.193Z,50.04
2022-10-25T03:36:20.488Z,50.01
2022-10-25T03:41:27.720Z,49.98
2022-10-25T03:46:34.924Z,50.00
2022-10-25T03:51:42.165Z,49.90
2022-10-25T03:56:49.315Z,49.88
2022-10-25T04:01:56.608Z,49.95
2022-10-25T04:07:03.764Z,49.98
2022-10-25T04:12:10.966Z,49.93
2022-10-25T04:17:18.122Z,49.95
2022-10-25T04:22:25.433Z,50.01
2022-10-25T04:27:32.552Z,50.05
2022-10-25T04:32:39.775Z,50.08
2022-10-25T04:37:47.022Z,50.06
2022-10-25T04:42:54.253Z,50.08
2022-10-25T04:48:01.523Z,50.05
2022-10-25T04:53:08.803Z,50.14
2022-10-25T04:58:15.981Z,50.11
2022-10-25T05:03:23.252Z,50.07
2022-10-25T05:08:30.383Z,50.04
2022-10-25T05:13:37.547Z,49.98
2022-10-25T05:18:44.787Z,49.96
2022-10-25T05:23:52.044Z,49.91
2022-10-25T05:28:59.169Z,49.89
2022-10-25T05:34:06.336Z,49.93
2022-10-25T05:39:13.541Z,49.77
2022-10-25T05:44:20.741Z,49.77
2022-10-25T05:49:27.929Z,49.74
2022-10-25T05:54:35.168Z,49.65
2022-10-25T05:59:42.339Z,49.70
2022-10-25T06:04:52.307Z,49.65
2022-10-25T06:09:56.696Z,49.59
2022-10-25T06:15:03.825Z,49.61
2022-10-25T06:20:10.990Z,49.64
2022-10-25T06:25:18.279Z,49.71
2022-10-25T06:30:25.532Z,49.76
2022-10-25T06:35:32.643Z,49.75
2022-10-25T06:40:39.932Z,49.79
2022-10-25T06:45:47.089Z,49.92
2022-10-25T06:50:54.274Z,50.03
2022-10-25T06:56:04.644Z,50.18
2022-10-25T07:01:08.863Z,50.08
2022-10-25T07:06:15.938Z,50.10
2022-10-25T07:11:23.215Z,50.10
2022-10-25T07:16:30.397Z,49.93
2022-10-25T07:21:37.606Z,49.96
2022-10-25T07:26:44.868Z,50.00
2022-10-25T07:31:52.133Z,49.94
2022-10-25T07:36:59.384Z,49.92
2022-10-25T07:42:06.667Z,49.84
2022-10-25T07:47:14.052Z,49.87
2022-10-25T07:52:21.293Z,49.82
2022-10-25T07:57:28.594Z,49.82
2022-10-25T08:02:35.742Z,49.85
2022-10-25T08:07:42.969Z,49.90
2022-10-25T08:12:50.231Z,49.90
2022-10-25T08:17:57.420Z,49.94
2022-10-25T08:23:04.659Z,49.98
2022-10-25T08:28:11.933Z,50.02
2022-10-25T08:33:19.223Z,50.00
2022-10-25T08:38:26.398Z,50.00
2022-10-25T08:43:33.620Z,50.03
2022-10-25T08:48:40.818Z,50.01
2022-10-25T08:53:48.088Z,50.00
2022-10-25T08:58:55.239Z,50.02
2022-10-25T09:04:02.469Z,50.01
2022-10-25T09:09:10.013Z,49.98
2022-10-25T09:14:17.282Z,49.97
2022-10-25T09:19:24.437Z,49.97
2022-10-25T09:24:31.674Z,49.97
2022-10-25T09:29:39.027Z,49.91
2022-10-25T09:34:46.232Z,49.93
2022-10-25T09:39:53.456Z,49.92
2022-10-25T09:45:00.687Z,49.96
2022-10-25T09:50:07.863Z,49.97
2022-10-25T09:55:15.076Z,50.00
2022-10-25T10:00:22.310Z,50.01
2022-10-25T10:05:29.561Z,50.02
2022-10-25T10:10:36.793Z,50.02
2022-10-25T10:15:44.179Z,50.06
2022-10-25T10:20:51.335Z,50.08
2022-10-25T10:25:58.541Z,50.13
2022-10-25T10:31:05.875Z,50.16
2022-10-25T10:36:13.027Z,50.14
2022-10-25T10:41:20.181Z,50.22
2022-10-25T10:46:27.443Z,50.21
2022-10-25T10:51:45.470Z,50.25
2022-10-25T10:56:44.803Z,50.31
2022-10-25T11:01:52.357Z,50.36
2022-10-25T11:06:59.430Z,50.43
2022-10-25T11:12:06.702Z,50.44
2022-10-25T11:17:13.997Z,50.47
2022-10-25T11:22:21.166Z,50.45
2022-10-25T11:27:30.770Z,50.44
2022-10-25T11:37:42.998Z,50.36
2022-10-25T11:42:50.547Z,50.36
2022-10-25T11:47:57.801Z,50.35
2022-10-25T11:53:04.994Z,50.26
2022-10-25T11:58:12.206Z,50.23
2022-10-25T12:03:19.624Z,50.16
2022-10-25T12:08:27.012Z,50.13
2022-10-25T12:13:34.253Z,50.13
2022-10-25T12:18:41.560Z,50.19
2022-10-25T12:23:48.827Z,50.29
2022-10-25T12:28:56.041Z,50.55
2022-10-25T12:34:03.355Z,50.28
2022-10-25T12:39:11.253Z,50.39
2022-10-25T12:44:18.533Z,50.44
2022-10-25T12:49:25.880Z,50.50
2022-10-25T12:54:32.915Z,50.80
2022-10-25T12:59:40.090Z,50.65
2022-10-25T13:04:47.398Z,50.10
2022-10-25T13:09:54.494Z,50.36
2022-10-25T13:15:01.760Z,50.48
2022-10-25T13:20:09.113Z,50.73
2022-10-25T13:25:16.100Z,50.65
2022-10-25T13:30:23.303Z,50.64
2022-10-25T13:35:30.612Z,50.75
2022-10-25T13:40:37.713Z,50.67
2022-10-25T13:45:44.976Z,50.74
2022-10-25T13:50:52.278Z,50.74
2022-10-25T13:55:59.313Z,50.73
2022-10-25T14:01:06.640Z,50.77
2022-10-25T14:06:17.634Z,50.74
2022-10-25T14:11:21.203Z,50.79
2022-10-25T14:16:28.462Z,50.71
2022-10-25T14:21:35.802Z,50.74
2022-10-25T14:26:43.072Z,50.76
2022-10-25T14:31:50.381Z,50.80
2022-10-25T14:36:57.656Z,50.68
2022-10-25T14:42:04.917Z,50.66
2022-10-25T14:47:12.314Z,50.60
2022-10-25T14:52:19.525Z,50.59
2022-10-25T14:57:26.794Z,50.57
2022-10-25T15:02:34.072Z,50.55
2022-10-25T15:07:43.178Z,50.52
2022-10-25T15:12:50.509Z,50.54
2022-10-25T15:17:57.684Z,50.55
2022-10-25T15:23:04.931Z,50.56
2022-10-25T15:28:12.134Z,50.55
2022-10-25T15:33:19.358Z,50.56
2022-10-25T15:38:37.026Z,50.53
2022-10-25T15:43:33.812Z,50.52
2022-10-25T15:48:41.023Z,50.51
2022-10-25T15:53:48.319Z,50.52
2022-10-25T15:58:55.536Z,50.53
2022-10-25T16:04:02.743Z,50.51
2022-10-25T16:09:10.012Z,50.52
2022-10-25T16:14:17.210Z,50.53
2022-10-25T16:19:24.896Z,50.64
2022-10-25T16:24:32.293Z,50.77
2022-10-25T16:29:39.489Z,50.83
2022-10-25T16:34:46.707Z,50.82
2022-10-25T16:39:53.924Z,50.74
2022-10-25T16:45:01.272Z,50.67
2022-10-25T16:50:08.893Z,50.64
2022-10-25T16:55:16.322Z,50.51
2022-10-25T17:00:23.812Z,50.51
2022-10-25T17:05:32.444Z,50.47
2022-10-25T17:10:43.713Z,50.39
2022-10-25T17:15:47.263Z,50.32
2022-10-25T17:20:54.605Z,50.27
2022-10-25T17:26:02.004Z,50.19
2022-10-25T17:31:09.593Z,50.15
2022-10-25T17:36:17.224Z,50.12
2022-10-25T17:41:24.849Z,50.13
2022-10-25T17:46:32.463Z,50.08
2022-10-25T17:51:39.950Z,50.00
2022-10-25T17:56:47.593Z,49.90
2022-10-25T18:01:55.127Z,49.89
2022-10-25T18:07:02.246Z,49.83
2022-10-25T18:12:09.549Z,49.77
2022-10-25T18:17:17.407Z,49.68
2022-10-25T18:22:24.566Z,49.65
2022-10-25T18:27:32.054Z,49.60
2022-10-25T18:32:39.635Z,49.73
2022-10-25T18:37:47.522Z,49.74
2022-10-25T18:42:54.993Z,49.72
2022-10-25T18:48:02.685Z,49.68
2022-10-25T18:53:10.504Z,49.63
2022-10-25T18:58:18.155Z,49.50
2022-10-25T19:03:25.858Z,49.52
2022-10-25T19:08:33.450Z,49.32
2022-10-25T19:13:40.818Z,49.47
2022-10-25T19:18:48.267Z,49.47
2022-10-25T19:23:55.879Z,49.47
2022-10-25T19:29:03.528Z,49.33
2022-10-25T19:34:11.622Z,49.18
2022-10-25T19:39:19.030Z,49.07
2022-10-25T19:44:26.783Z,49.03
2022-10-25T19:49:34.258Z,49.07
2022-10-25T19:54:41.816Z,49.00
2022-10-25T19:59:49.115Z,48.97
2022-10-25T20:04:56.313Z,49.07
2022-10-25T20:10:03.905Z,48.73
2022-10-25T20:20:19.066Z,48.71
2022-10-25T20:25:27.149Z,48.50
2022-10-25T20:30:34.597Z,48.34
2022-10-25T20:35:42.173Z,48.07
2022-10-25T20:40:49.792Z,47.78
2022-10-25T20:45:57.300Z,47.61
2022-10-25T20:51:07.620Z,47.32
2022-10-25T20:56:12.125Z,47.21
2022-10-25T21:01:19.548Z,47.05
2022-10-25T21:06:26.600Z,47.01
2022-10-25T21:11:33.804Z,47.01
2022-10-25T21:16:41.009Z,47.14
2022-10-25T21:21:48.205Z,46.89
2022-10-25T21:26:55.427Z,46.85
2022-10-25T21:32:02.606Z,46.78
2022-10-25T21:37:09.752Z,46.68
2022-10-25T21:42:16.970Z,46.59
2022-10-25T21:47:24.197Z,46.65
2022-10-25T21:52:31.435Z,46.40
2022-10-25T21:57:38.617Z,46.32
2022-10-25T22:02:45.921Z,46.35
2022-10-25T22:07:53.114Z,46.21
2022-10-25T22:13:00.293Z,46.47
2022-10-25T22:18:07.503Z,46.13
2022-10-25T22:23:14.721Z,46.21
2022-10-25T22:28:22.644Z,46.42
2022-10-25T22:33:29.840Z,46.07
2022-10-25T22:38:37.007Z,46.33
2022-10-25T22:43:46.338Z,46.28
2022-10-25T22:48:53.527Z,45.90
2022-10-25T22:54:00.715Z,45.69
2022-10-25T22:59:07.885Z,45.54
2022-10-25T23:04:15.184Z,45.22
2022-10-25T23:09:22.416Z,45.80
2022-10-25T23:14:29.602Z,45.62
2022-10-25T23:19:36.855Z,45.96
2022-10-25T23:24:44.050Z,45.88
2022-10-25T23:29:51.319Z,45.91
2022-10-25T23:34:58.516Z,46.15
2022-10-25T23:40:05.646Z,46.26
2022-10-25T23:45:12.866Z,46.40
2022-10-25T23:50:20.080Z,46.53
2022-10-25T23:55:27.317Z,46.68
